createdAt,value
2023-07-19T00:01:34.354Z,12.10
2023-07-19T00:04:00.938Z,9.85
2023-07-19T00:06:27.419Z,7.70
2023-07-19T00:08:53.919Z,7.93
2023-07-19T00:11:20.626Z,6.75
2023-07-19T00:13:47.351Z,8.88
2023-07-19T00:16:13.907Z,10.48
2023-07-19T00:18:40.407Z,11.05
2023-07-19T00:21:07.055Z,8.32
2023-07-19T00:23:33.600Z,9.93
2023-07-19T00:26:00.181Z,8.90
2023-07-19T00:28:26.774Z,10.82
2023-07-19T00:31:03.350Z,7.13
2023-07-19T00:33:29.845Z,6.82
2023-07-19T00:35:56.347Z,10.30
2023-07-19T00:38:22.952Z,8.07
2023-07-19T00:40:50.133Z,7.82
2023-07-19T00:43:16.828Z,10.75
2023-07-19T00:45:53.438Z,9.77
2023-07-19T00:48:20.068Z,8.68
2023-07-19T00:50:46.607Z,8.98
2023-07-19T00:53:13.129Z,11.32
2023-07-19T00:55:39.828Z,8.90
2023-07-19T00:58:06.375Z,7.35
2023-07-19T01:00:33.023Z,8.07
2023-07-19T01:03:00.225Z,9.07
2023-07-19T01:05:27.855Z,8.23
2023-07-19T01:07:54.818Z,8.73
2023-07-19T01:10:21.331Z,6.82
2023-07-19T01:13:09.877Z,9.02
2023-07-19T01:15:37.282Z,6.97
2023-07-19T01:18:04.022Z,11.25
2023-07-19T01:20:30.623Z,10.05
2023-07-19T01:22:57.372Z,12.40
2023-07-19T01:25:24.220Z,8.80
2023-07-19T01:27:50.771Z,7.68
2023-07-19T01:30:17.266Z,9.88
2023-07-19T01:32:44.461Z,9.38
2023-07-19T01:35:11.034Z,7.50
2023-07-19T01:37:37.581Z,8.77
2023-07-19T01:40:07.527Z,10.73
2023-07-19T01:42:34.032Z,8.40
2023-07-19T01:45:02.187Z,8.77
2023-07-19T01:47:29.003Z,9.80
2023-07-19T01:49:55.557Z,9.70
2023-07-19T01:52:22.290Z,11.73
2023-07-19T01:54:48.799Z,10.30
2023-07-19T01:57:15.935Z,7.72
2023-07-19T01:59:42.470Z,10.68
2023-07-19T02:02:09.110Z,9.90
2023-07-19T02:04:35.700Z,12.13
2023-07-19T02:07:02.188Z,9.82
2023-07-19T02:09:28.807Z,9.00
2023-07-19T02:11:55.424Z,13.25
2023-07-19T02:14:22.303Z,9.18
2023-07-19T02:16:48.825Z,11.10
2023-07-19T02:19:15.366Z,9.75
2023-07-19T02:21:42.129Z,9.80
2023-07-19T02:24:08.614Z,8.90
2023-07-19T02:26:35.125Z,11.27
2023-07-19T02:29:01.814Z,9.93
2023-07-19T02:31:28.360Z,10.40
2023-07-19T02:33:54.895Z,11.60
2023-07-19T02:36:21.412Z,8.18
2023-07-19T02:38:47.907Z,11.02
2023-07-19T02:41:14.432Z,10.02
2023-07-19T02:43:40.920Z,9.80
2023-07-19T02:46:07.474Z,11.38
2023-07-19T02:48:33.984Z,13.45
2023-07-19T02:51:00.542Z,10.25
2023-07-19T02:53:27.221Z,9.95
2023-07-19T02:55:53.764Z,9.90
2023-07-19T02:58:20.237Z,10.27
2023-07-19T03:00:46.810Z,10.90
2023-07-19T03:03:13.897Z,9.75
2023-07-19T03:05:43.415Z,7.82
2023-07-19T03:10:37.105Z,10.10
2023-07-19T03:13:04.099Z,10.02
2023-07-19T03:15:33.993Z,10.00
2023-07-19T03:18:01.440Z,7.25
2023-07-19T03:20:29.004Z,7.85
2023-07-19T03:22:56.395Z,8.23
2023-07-19T03:25:24.026Z,7.97
2023-07-19T03:27:50.893Z,8.40
2023-07-19T03:30:17.501Z,8.32
2023-07-19T03:32:44.063Z,9.20
2023-07-19T03:35:10.673Z,7.97
2023-07-19T03:37:37.350Z,6.95
2023-07-19T03:40:05.356Z,7.88
2023-07-19T03:42:32.251Z,9.48
2023-07-19T03:44:58.752Z,8.98
2023-07-19T03:47:26.363Z,8.02
2023-07-19T03:49:52.936Z,12.13
2023-07-19T03:52:19.486Z,9.23
2023-07-19T03:54:45.974Z,8.02
2023-07-19T03:57:12.514Z,10.63
2023-07-19T03:59:39.019Z,8.68
2023-07-19T04:02:05.879Z,10.25
2023-07-19T04:04:32.538Z,8.52
2023-07-19T04:06:59.167Z,9.77
2023-07-19T04:09:25.744Z,7.32
2023-07-19T04:11:52.271Z,7.88
2023-07-19T04:14:18.823Z,8.75
2023-07-19T04:16:46.255Z,9.30
2023-07-19T04:19:13.182Z,8.50
2023-07-19T04:21:39.684Z,8.27
2023-07-19T04:24:06.440Z,8.48
2023-07-19T04:26:32.953Z,7.95
2023-07-19T04:28:59.512Z,9.10
2023-07-19T04:31:26.003Z,8.65
2023-07-19T04:33:52.553Z,7.43
2023-07-19T04:36:19.425Z,7.80
2023-07-19T04:38:46.257Z,9.93
2023-07-19T04:41:12.776Z,7.70
2023-07-19T04:43:39.326Z,12.45
2023-07-19T04:46:06.194Z,8.88
2023-07-19T04:48:32.792Z,7.90
2023-07-19T04:50:59.439Z,10.05
2023-07-19T04:53:26.434Z,7.57
2023-07-19T04:55:53.654Z,8.75
2023-07-19T04:58:20.221Z,7.32
2023-07-19T05:00:46.799Z,7.40
2023-07-19T05:03:13.468Z,6.68
2023-07-19T05:05:40.355Z,6.25
2023-07-19T05:08:07.333Z,6.80
2023-07-19T05:10:37.950Z,7.22
2023-07-19T05:13:05.473Z,7.32
2023-07-19T05:15:32.619Z,6.65
2023-07-19T05:18:00.719Z,7.60
2023-07-19T05:20:27.434Z,7.20
2023-07-19T05:22:53.973Z,7.68
2023-07-19T05:25:20.469Z,8.75
2023-07-19T05:27:47.039Z,7.07
2023-07-19T05:30:13.741Z,7.75
2023-07-19T05:32:40.304Z,7.53
2023-07-19T05:35:07.843Z,7.05
2023-07-19T05:37:34.359Z,6.25
2023-07-19T05:40:00.854Z,6.10
2023-07-19T05:42:27.434Z,5.85
2023-07-19T05:44:53.990Z,6.28
2023-07-19T05:47:20.515Z,5.90
2023-07-19T05:49:47.091Z,6.65
2023-07-19T05:52:13.577Z,6.32
2023-07-19T05:54:40.101Z,5.78
2023-07-19T05:57:06.664Z,8.05
2023-07-19T05:59:33.826Z,4.97
2023-07-19T06:02:00.415Z,4.85
2023-07-19T06:04:27.755Z,7.20
2023-07-19T06:06:54.368Z,7.28
2023-07-19T06:09:20.852Z,5.95
2023-07-19T06:11:47.361Z,5.55
2023-07-19T06:14:13.848Z,6.45
2023-07-19T06:16:40.756Z,6.13
2023-07-19T06:19:07.327Z,5.80
2023-07-19T06:21:33.839Z,5.53
2023-07-19T06:24:00.386Z,5.18
2023-07-19T06:26:26.952Z,7.03
2023-07-19T06:28:54.214Z,10.13
2023-07-19T06:31:20.987Z,6.95
2023-07-19T06:33:47.759Z,7.57
2023-07-19T06:36:14.253Z,5.45
2023-07-19T06:38:40.876Z,5.85
2023-07-19T06:41:07.554Z,4.65
2023-07-19T06:43:34.292Z,5.60
2023-07-19T06:46:00.870Z,5.50
2023-07-19T06:48:27.402Z,5.30
2023-07-19T06:50:53.926Z,5.50
2023-07-19T06:53:20.467Z,5.47
2023-07-19T06:55:47.010Z,4.55
2023-07-19T06:58:13.520Z,5.07
2023-07-19T07:00:40.144Z,6.07
2023-07-19T07:03:06.855Z,4.38
2023-07-19T07:05:34.660Z,6.60
2023-07-19T07:08:01.167Z,6.85
2023-07-19T07:10:27.685Z,4.78
2023-07-19T07:12:54.194Z,5.95
2023-07-19T07:15:20.700Z,4.90
2023-07-19T07:17:49.832Z,5.35
2023-07-19T07:22:42.819Z,8.60
2023-07-19T07:25:09.941Z,4.65
2023-07-19T07:27:36.652Z,5.47
2023-07-19T07:30:03.423Z,4.65
2023-07-19T07:32:30.031Z,5.05
2023-07-19T07:34:56.616Z,6.05
2023-07-19T07:37:23.129Z,5.45
2023-07-19T07:39:49.670Z,4.38
2023-07-19T07:42:16.200Z,4.38
2023-07-19T07:44:42.693Z,3.95
2023-07-19T07:47:09.234Z,5.10
2023-07-19T07:49:35.774Z,5.75
2023-07-19T07:52:02.852Z,4.05
2023-07-19T07:54:29.348Z,4.03
2023-07-19T07:56:56.001Z,4.43
2023-07-19T07:59:22.574Z,4.25
2023-07-19T08:01:49.092Z,4.18
2023-07-19T08:04:15.594Z,3.95
2023-07-19T08:06:42.297Z,4.00
2023-07-19T08:09:08.870Z,3.20
2023-07-19T08:11:35.449Z,3.65
2023-07-19T08:14:02.404Z,3.53
2023-07-19T08:16:29.369Z,3.58
2023-07-19T08:18:56.037Z,3.87
2023-07-19T08:21:35.288Z,3.00
2023-07-19T08:24:03.130Z,4.05
2023-07-19T08:26:29.665Z,4.07
2023-07-19T08:28:56.225Z,4.00
2023-07-19T08:31:24.787Z,3.70
2023-07-19T08:33:55.565Z,3.10
2023-07-19T08:36:22.086Z,3.42
2023-07-19T08:38:48.725Z,3.65
2023-07-19T08:41:18.145Z,6.40
2023-07-19T08:43:45.081Z,3.38
2023-07-19T08:46:16.470Z,3.03
2023-07-19T08:48:48.235Z,2.50
2023-07-19T08:51:15.765Z,2.83
2023-07-19T08:56:08.638Z,3.17
2023-07-19T08:58:35.769Z,3.15
2023-07-19T09:01:02.298Z,2.60
2023-07-19T09:03:28.848Z,3.13
2023-07-19T09:05:55.406Z,3.05
2023-07-19T09:08:21.956Z,2.88
2023-07-19T09:10:48.597Z,3.03
2023-07-19T09:13:19.611Z,3.53
2023-07-19T09:15:48.576Z,3.55
2023-07-19T09:18:15.280Z,2.92
2023-07-19T09:20:41.975Z,3.05
2023-07-19T09:23:08.555Z,3.23
2023-07-19T09:25:50.961Z,3.80
2023-07-19T09:28:23.229Z,4.60
2023-07-19T09:31:23.460Z,3.97
2023-07-19T09:33:54.284Z,3.45
2023-07-19T09:36:20.986Z,5.53
2023-07-19T09:38:47.801Z,4.47
2023-07-19T09:41:14.307Z,4.70
2023-07-19T09:43:40.872Z,3.85
2023-07-19T09:46:07.401Z,5.47
2023-07-19T09:48:33.867Z,3.60
2023-07-19T09:51:02.030Z,5.68
2023-07-19T09:55:54.866Z,4.72
2023-07-19T09:58:21.924Z,4.20
2023-07-19T10:00:48.403Z,5.53
2023-07-19T10:03:22.256Z,4.30
2023-07-19T10:05:57.745Z,9.20
2023-07-19T10:08:24.248Z,5.32
2023-07-19T10:10:56.902Z,5.47
2023-07-19T10:13:32.143Z,5.07
2023-07-19T10:15:58.760Z,6.40
2023-07-19T10:18:25.896Z,9.88
2023-07-19T10:21:04.193Z,5.53
2023-07-19T10:23:35.676Z,5.25
2023-07-19T10:26:07.350Z,5.22
2023-07-19T10:28:33.906Z,6.22
2023-07-19T10:31:17.335Z,5.32
2023-07-19T10:33:47.871Z,6.93
2023-07-19T10:36:15.424Z,5.30
2023-07-19T10:38:42.049Z,4.25
2023-07-19T10:41:10.127Z,6.60
2023-07-19T10:43:48.354Z,4.47
2023-07-19T10:46:19.722Z,6.22
2023-07-19T10:48:46.681Z,8.20
2023-07-19T10:51:13.286Z,6.78
2023-07-19T10:53:49.211Z,6.72
2023-07-19T10:56:20.465Z,7.45
2023-07-19T10:58:47.380Z,6.53
2023-07-19T11:01:14.158Z,5.15
2023-07-19T11:03:43.612Z,6.05
2023-07-19T11:06:10.441Z,7.50
2023-07-19T11:08:36.986Z,6.07
2023-07-19T11:11:03.609Z,6.95
2023-07-19T11:13:31.707Z,6.72
2023-07-19T11:15:59.058Z,5.25
2023-07-19T11:18:30.372Z,6.97
2023-07-19T11:20:58.405Z,6.60
2023-07-19T11:23:25.824Z,6.68
2023-07-19T11:25:52.322Z,6.45
2023-07-19T11:28:45.797Z,6.20
2023-07-19T11:31:34.894Z,8.25
2023-07-19T11:34:20.351Z,6.40
2023-07-19T11:36:47.694Z,5.28
2023-07-19T11:39:15.471Z,6.30
2023-07-19T11:41:49.634Z,4.93
2023-07-19T11:44:20.293Z,5.15
2023-07-19T11:46:47.649Z,6.00
2023-07-19T11:49:14.226Z,5.03
2023-07-19T11:51:41.399Z,5.30
2023-07-19T11:54:07.919Z,5.43
2023-07-19T11:56:35.145Z,5.72
2023-07-19T11:59:01.857Z,6.53
2023-07-19T12:01:28.562Z,7.30
2023-07-19T12:03:55.318Z,5.53
2023-07-19T12:06:22.170Z,5.38
2023-07-19T12:08:48.827Z,4.93
2023-07-19T12:11:15.488Z,5.10
2023-07-19T12:13:42.053Z,6.03
2023-07-19T12:16:08.597Z,7.32
2023-07-19T12:18:35.192Z,5.90
2023-07-19T12:21:01.884Z,5.65
2023-07-19T12:25:58.278Z,4.97
2023-07-19T12:28:24.793Z,5.82
2023-07-19T12:30:51.487Z,5.20
2023-07-19T12:33:18.448Z,6.53
2023-07-19T12:35:47.189Z,4.85
2023-07-19T12:38:15.098Z,6.57
2023-07-19T12:40:42.236Z,5.23
2023-07-19T12:43:08.897Z,5.05
2023-07-19T12:45:35.405Z,6.55
2023-07-19T12:48:03.668Z,6.72
2023-07-19T12:50:30.343Z,5.20
2023-07-19T12:52:56.854Z,5.82
2023-07-19T12:55:23.382Z,4.88
2023-07-19T12:57:50.124Z,6.60
2023-07-19T13:00:17.552Z,4.35
2023-07-19T13:02:45.835Z,7.55
2023-07-19T13:05:12.795Z,5.45
2023-07-19T13:07:39.505Z,4.93
2023-07-19T13:10:06.457Z,6.63
2023-07-19T13:12:33.029Z,5.05
2023-07-19T13:14:59.569Z,4.55
2023-07-19T13:17:26.344Z,4.95
2023-07-19T13:19:53.059Z,5.32
2023-07-19T13:22:20.322Z,6.75
2023-07-19T13:24:46.969Z,5.78
2023-07-19T13:29:58.332Z,6.85
2023-07-19T13:32:25.010Z,4.45
2023-07-19T13:34:51.611Z,6.13
2023-07-19T13:37:18.120Z,4.82
2023-07-19T13:39:45.566Z,5.63
2023-07-19T13:42:12.131Z,4.30
2023-07-19T13:44:38.620Z,5.15
2023-07-19T13:47:05.463Z,5.53
2023-07-19T13:49:32.023Z,6.03
2023-07-19T13:51:58.556Z,4.60
2023-07-19T13:54:25.106Z,5.10
2023-07-19T13:56:51.736Z,4.43
2023-07-19T13:59:18.251Z,4.82
2023-07-19T14:01:44.829Z,5.03
2023-07-19T14:04:11.573Z,5.90
2023-07-19T14:06:39.451Z,4.35
2023-07-19T14:09:06.135Z,4.95
2023-07-19T14:11:32.973Z,7.80
2023-07-19T14:13:59.534Z,4.30
2023-07-19T14:16:26.410Z,4.97
2023-07-19T14:18:53.258Z,6.18
2023-07-19T14:21:20.029Z,6.10
2023-07-19T14:23:46.616Z,5.45
2023-07-19T14:26:13.177Z,3.58
2023-07-19T14:28:39.694Z,4.82
2023-07-19T14:31:06.345Z,6.88
2023-07-19T14:33:32.903Z,2.90
2023-07-19T14:36:00.689Z,5.63
2023-07-19T14:38:29.489Z,5.07
2023-07-19T14:40:56.923Z,5.10
2023-07-19T14:43:24.652Z,4.50
2023-07-19T14:45:54.588Z,5.07
2023-07-19T14:48:22.204Z,3.17
2023-07-19T14:50:56.258Z,4.35
2023-07-19T14:53:23.425Z,5.25
2023-07-19T14:55:52.621Z,5.03
2023-07-19T14:58:19.702Z,3.25
2023-07-19T15:03:28.251Z,3.92
2023-07-19T15:05:57.206Z,3.40
2023-07-19T15:08:23.797Z,3.67
2023-07-19T15:10:50.462Z,4.30
2023-07-19T15:13:20.463Z,5.45
2023-07-19T15:15:47.563Z,8.43
2023-07-19T15:18:14.610Z,4.50
2023-07-19T15:20:42.701Z,3.58
2023-07-19T15:23:09.868Z,4.80
2023-07-19T15:25:36.528Z,3.35
2023-07-19T15:28:18.258Z,3.85
2023-07-19T15:30:47.761Z,3.35
2023-07-19T15:33:14.269Z,3.63
2023-07-19T15:35:40.891Z,3.35
2023-07-19T15:38:07.338Z,2.58
2023-07-19T15:40:33.902Z,3.90
2023-07-19T15:43:01.104Z,2.90
2023-07-19T15:45:27.606Z,2.10
2023-07-19T15:47:54.586Z,3.33
2023-07-19T15:50:21.799Z,5.13
2023-07-19T15:52:48.290Z,2.53
2023-07-19T15:55:14.761Z,2.25
2023-07-19T15:57:41.238Z,3.70
2023-07-19T16:00:10.264Z,2.70
2023-07-19T16:05:03.397Z,2.95
2023-07-19T16:07:29.922Z,5.63
2023-07-19T16:09:56.580Z,5.70
2023-07-19T16:12:23.109Z,2.40
2023-07-19T16:14:49.735Z,2.72
2023-07-19T16:17:16.537Z,3.42
2023-07-19T16:19:43.022Z,3.53
2023-07-19T16:22:09.483Z,6.15
2023-07-19T16:24:35.982Z,3.25
2023-07-19T16:27:12.860Z,3.92
2023-07-19T16:29:46.358Z,3.25
2023-07-19T16:32:17.566Z,4.05
2023-07-19T16:34:49.003Z,2.17
2023-07-19T16:37:20.221Z,5.22
2023-07-19T16:39:51.717Z,3.30
2023-07-19T16:42:22.389Z,3.58
2023-07-19T16:44:55.403Z,2.42
2023-07-19T16:47:30.576Z,3.28
2023-07-19T16:49:59.071Z,2.90
2023-07-19T16:52:29.343Z,2.85
2023-07-19T16:54:58.364Z,2.05
2023-07-19T16:57:33.672Z,2.92
2023-07-19T17:06:47.972Z,3.05
2023-07-19T17:09:17.682Z,2.40
2023-07-19T17:11:45.881Z,2.15
2023-07-19T17:14:16.529Z,3.03
2023-07-19T17:16:58.114Z,2.13
2023-07-19T17:19:37.450Z,3.22
2023-07-19T17:22:06.751Z,3.63
2023-07-19T17:24:35.649Z,1.90
2023-07-19T17:27:04.565Z,2.72
2023-07-19T17:29:33.901Z,3.17
2023-07-19T17:32:02.448Z,3.58
2023-07-19T17:34:32.451Z,2.00
2023-07-19T17:37:01.818Z,2.97
2023-07-19T17:41:59.097Z,4.30
2023-07-19T17:45:02.093Z,4.72
2023-07-19T17:47:44.636Z,3.08
2023-07-19T17:50:25.845Z,2.85
2023-07-19T17:53:09.401Z,3.45
2023-07-19T17:55:51.940Z,1.98
2023-07-19T17:58:21.868Z,2.08
2023-07-19T18:01:00.766Z,1.92
2023-07-19T18:03:40.671Z,2.05
2023-07-19T18:06:12.538Z,2.67
2023-07-19T18:11:30.060Z,5.03
2023-07-19T18:14:05.862Z,2.67
2023-07-19T18:16:39.545Z,3.70
2023-07-19T18:19:11.560Z,3.05
2023-07-19T18:22:02.348Z,2.45
2023-07-19T18:24:33.839Z,3.15
2023-07-19T18:29:50.287Z,4.55
2023-07-19T18:32:24.729Z,3.83
2023-07-19T18:34:54.734Z,4.65
2023-07-19T18:37:25.323Z,2.90
2023-07-19T18:39:56.549Z,4.85
2023-07-19T18:42:25.725Z,3.10
2023-07-19T18:47:24.482Z,4.03
2023-07-19T18:52:24.389Z,5.47
2023-07-19T18:54:58.304Z,4.60
2023-07-19T18:57:27.862Z,3.60
2023-07-19T18:59:56.149Z,4.55
2023-07-19T19:02:24.103Z,5.53
2023-07-19T19:04:53.471Z,5.47
2023-07-19T19:09:50.797Z,5.57
2023-07-19T19:12:18.822Z,5.05
2023-07-19T19:14:52.977Z,5.88
2023-07-19T19:20:03.950Z,5.03
2023-07-19T19:22:36.384Z,5.10
2023-07-19T19:25:07.461Z,8.52
2023-07-19T19:27:39.630Z,4.55
2023-07-19T19:30:07.317Z,4.43
2023-07-19T19:32:34.431Z,5.15
2023-07-19T19:35:03.021Z,6.28
2023-07-19T19:37:31.594Z,4.68
2023-07-19T19:39:59.606Z,5.88
2023-07-19T19:42:30.441Z,5.95
2023-07-19T19:44:58.302Z,4.47
2023-07-19T19:47:25.684Z,4.55
2023-07-19T19:49:52.943Z,6.20
2023-07-19T19:52:20.958Z,4.15
2023-07-19T19:54:48.900Z,5.55
2023-07-19T19:57:18.030Z,5.00
2023-07-19T20:02:40.528Z,6.82
2023-07-19T20:05:07.868Z,4.87
2023-07-19T20:07:35.054Z,6.50
2023-07-19T20:10:17.277Z,4.75
2023-07-19T20:12:45.885Z,3.83
2023-07-19T20:15:15.871Z,4.65
2023-07-19T20:17:43.614Z,4.88
2023-07-19T20:22:47.736Z,3.67
2023-07-19T20:25:29.052Z,4.00
2023-07-19T20:28:04.081Z,6.00
2023-07-19T20:30:31.146Z,6.32
2023-07-19T20:32:59.041Z,6.70
2023-07-19T20:43:08.885Z,4.88
2023-07-19T20:45:38.687Z,7.15
2023-07-19T20:48:10.377Z,5.95
2023-07-19T20:50:37.814Z,5.13
2023-07-19T20:53:06.935Z,5.55
2023-07-19T20:55:37.105Z,4.80
2023-07-19T20:58:06.175Z,5.07
2023-07-19T21:00:38.569Z,4.10
2023-07-19T21:03:07.867Z,3.90
2023-07-19T21:08:15.327Z,4.38
2023-07-19T21:10:44.687Z,4.07
2023-07-19T21:13:15.132Z,3.92
2023-07-19T21:15:46.520Z,6.38
2023-07-19T21:18:18.159Z,5.07
2023-07-19T21:20:50.081Z,4.85
2023-07-19T21:23:17.909Z,4.72
2023-07-19T21:25:46.247Z,5.10
2023-07-19T21:28:18.003Z,5.97
2023-07-19T21:30:50.153Z,7.50
2023-07-19T21:33:38.611Z,5.10
2023-07-19T21:36:08.404Z,4.22
2023-07-19T21:38:35.941Z,5.20
2023-07-19T21:41:05.039Z,5.70
2023-07-19T21:43:37.271Z,4.35
2023-07-19T21:49:48.199Z,5.10
2023-07-19T21:52:16.005Z,5.20
2023-07-19T21:54:50.072Z,4.63
2023-07-19T21:57:20.587Z,5.07
2023-07-19T22:03:04.778Z,6.13
2023-07-19T22:06:02.831Z,4.32
2023-07-19T22:14:31.443Z,5.70
2023-07-19T22:17:09.530Z,5.40
2023-07-19T22:19:39.663Z,6.13
2023-07-19T22:22:44.708Z,4.15
2023-07-19T22:25:34.492Z,4.88
2023-07-19T22:28:31.085Z,5.07
2023-07-19T22:31:03.291Z,5.45
2023-07-19T22:36:44.729Z,4.43
2023-07-19T22:42:30.449Z,5.75
2023-07-19T22:45:23.239Z,4.55
2023-07-19T22:50:40.833Z,5.22
2023-07-19T22:53:35.325Z,4.75
2023-07-19T22:56:05.816Z,5.10
2023-07-19T22:58:54.861Z,7.75
2023-07-19T23:02:10.002Z,4.72
2023-07-19T23:05:00.919Z,3.95
2023-07-19T23:10:12.459Z,5.45
2023-07-19T23:12:48.391Z,5.78
2023-07-19T23:15:55.049Z,7.70
2023-07-19T23:28:24.033Z,5.07
2023-07-19T23:34:37.630Z,4.90
2023-07-19T23:40:37.679Z,4.72
2023-07-19T23:57:30.526Z,4.70
